createdAt,value
2023-05-24T00:00:26.349Z,100.00
2023-05-24T00:02:53.685Z,100.00
2023-05-24T00:05:20.796Z,100.00
2023-05-24T00:07:51.683Z,100.00
2023-05-24T00:10:21.775Z,100.00
2023-05-24T00:12:49.283Z,100.00
2023-05-24T00:15:16.917Z,100.00
2023-05-24T00:17:44.262Z,100.00
2023-05-24T00:20:12.824Z,100.00
2023-05-24T00:22:41.018Z,100.00
2023-05-24T00:25:11.278Z,100.00
2023-05-24T00:27:40.949Z,100.00
2023-05-24T00:30:11.992Z,100.00
2023-05-24T00:32:38.739Z,100.00
2023-05-24T00:35:06.223Z,100.00
2023-05-24T00:37:33.898Z,100.00
2023-05-24T00:40:01.171Z,100.00
2023-05-24T00:42:28.637Z,100.00
2023-05-24T00:44:56.141Z,100.00
2023-05-24T00:47:23.986Z,100.00
2023-05-24T00:49:51.647Z,100.00
2023-05-24T00:52:19.760Z,100.00
2023-05-24T00:54:54.064Z,100.00
2023-05-24T00:57:24.625Z,100.00
2023-05-24T00:59:53.088Z,100.00
2023-05-24T01:02:21.026Z,100.00
2023-05-24T01:04:49.574Z,100.00
2023-05-24T01:07:27.072Z,100.00
2023-05-24T01:10:06.377Z,100.00
2023-05-24T01:13:04.994Z,100.00
2023-05-24T01:15:48.147Z,100.00
2023-05-24T01:18:33.100Z,100.00
2023-05-24T01:21:14.835Z,100.00
2023-05-24T01:23:56.075Z,100.00
2023-05-24T01:26:37.771Z,100.00
2023-05-24T01:29:09.017Z,100.00
2023-05-24T01:31:37.193Z,100.00
2023-05-24T01:34:07.439Z,100.00
2023-05-24T01:36:35.477Z,100.00
2023-05-24T01:39:06.766Z,100.00
2023-05-24T01:41:44.508Z,100.00
2023-05-24T01:44:45.059Z,100.00
2023-05-24T01:47:35.466Z,100.00
2023-05-24T01:50:36.546Z,100.00
2023-05-24T01:53:18.976Z,100.00
2023-05-24T01:55:52.200Z,100.00
2023-05-24T01:58:25.322Z,100.00
2023-05-24T02:00:54.297Z,100.00
2023-05-24T02:03:32.799Z,100.00
2023-05-24T02:06:03.132Z,100.00
2023-05-24T02:08:30.315Z,100.00
2023-05-24T02:10:58.002Z,100.00
2023-05-24T02:13:25.601Z,100.00
2023-05-24T02:15:56.425Z,100.00
2023-05-24T02:18:23.738Z,100.00
2023-05-24T02:20:51.811Z,100.00
2023-05-24T02:23:19.077Z,100.00
2023-05-24T02:25:45.890Z,100.00
2023-05-24T02:28:12.659Z,100.00
2023-05-24T02:30:40.097Z,100.00
2023-05-24T02:33:11.437Z,100.00
2023-05-24T02:35:38.726Z,100.00
2023-05-24T02:38:06.842Z,100.00
2023-05-24T02:40:37.431Z,100.00
2023-05-24T02:43:04.408Z,100.00
2023-05-24T02:45:31.923Z,100.00
2023-05-24T02:47:59.138Z,100.00
2023-05-24T02:50:26.074Z,100.00
2023-05-24T02:52:52.964Z,100.00
2023-05-24T02:55:19.965Z,100.00
2023-05-24T02:57:48.243Z,100.00
2023-05-24T03:00:15.824Z,100.00
2023-05-24T03:02:42.905Z,100.00
2023-05-24T03:05:10.045Z,100.00
2023-05-24T03:07:37.007Z,100.00
2023-05-24T03:10:04.527Z,100.00
2023-05-24T03:12:31.458Z,100.00
2023-05-24T03:15:01.288Z,100.00
2023-05-24T03:17:31.355Z,100.00
2023-05-24T03:20:02.756Z,100.00
2023-05-24T03:22:29.775Z,100.00
2023-05-24T03:24:57.895Z,100.00
2023-05-24T03:27:27.519Z,100.00
2023-05-24T03:29:54.605Z,100.00
2023-05-24T03:32:23.998Z,100.00
2023-05-24T03:34:58.253Z,100.00
2023-05-24T03:37:48.122Z,100.00
2023-05-24T03:43:59.171Z,100.00
2023-05-24T03:46:26.333Z,100.00
2023-05-24T03:48:56.522Z,100.00
2023-05-24T03:51:40.361Z,100.00
2023-05-24T03:54:07.534Z,100.00
2023-05-24T03:56:34.655Z,100.00
2023-05-24T03:59:04.310Z,100.00
2023-05-24T04:01:34.693Z,100.00
2023-05-24T04:04:12.872Z,100.00
2023-05-24T04:06:53.286Z,100.00
2023-05-24T04:09:23.258Z,100.00
2023-05-24T04:11:50.418Z,100.00
2023-05-24T04:14:20.808Z,100.00
2023-05-24T04:16:48.553Z,100.00
2023-05-24T04:19:16.088Z,100.00
2023-05-24T04:21:46.612Z,100.00
2023-05-24T04:24:13.526Z,100.00
2023-05-24T04:26:40.567Z,100.00
2023-05-24T04:29:08.001Z,100.00
2023-05-24T04:31:35.304Z,100.00
2023-05-24T04:34:03.324Z,100.00
2023-05-24T04:36:33.587Z,100.00
2023-05-24T04:39:06.890Z,100.00
2023-05-24T04:41:35.585Z,100.00
2023-05-24T04:44:05.737Z,98.82
2023-05-24T04:46:36.512Z,95.85
2023-05-24T04:49:03.917Z,94.51
2023-05-24T04:51:31.047Z,94.47
2023-05-24T04:54:09.687Z,94.16
2023-05-24T04:56:38.876Z,93.28
2023-05-24T04:59:09.900Z,91.44
2023-05-24T05:01:36.884Z,88.36
2023-05-24T05:04:06.620Z,88.33
2023-05-24T05:06:38.190Z,87.23
2023-05-24T05:09:13.425Z,86.01
2023-05-24T05:11:41.058Z,84.36
2023-05-24T05:14:11.830Z,84.17
2023-05-24T05:16:39.327Z,84.99
2023-05-24T05:19:06.512Z,83.44
2023-05-24T05:21:34.053Z,83.51
2023-05-24T05:24:01.747Z,83.10
2023-05-24T05:26:28.925Z,81.80
2023-05-24T05:28:56.132Z,82.92
2023-05-24T05:31:24.874Z,81.42
2023-05-24T05:33:54.478Z,80.40
2023-05-24T05:36:21.265Z,79.33
2023-05-24T05:38:48.017Z,79.14
2023-05-24T05:41:14.783Z,77.91
2023-05-24T05:43:41.861Z,78.61
2023-05-24T05:46:08.814Z,77.72
2023-05-24T05:48:35.807Z,76.11
2023-05-24T05:51:02.781Z,74.29
2023-05-24T05:53:29.607Z,74.08
2023-05-24T05:55:56.432Z,72.91
2023-05-24T05:58:23.230Z,73.04
2023-05-24T06:00:50.355Z,69.79
2023-05-24T06:03:17.604Z,67.84
2023-05-24T06:05:46.989Z,68.59
2023-05-24T06:08:13.973Z,67.92
2023-05-24T06:10:41.003Z,64.57
2023-05-24T06:13:07.871Z,64.37
2023-05-24T06:15:35.394Z,64.66
2023-05-24T06:18:05.362Z,63.10
2023-05-24T06:20:32.224Z,61.74
2023-05-24T06:22:59.225Z,58.64
2023-05-24T06:25:26.208Z,58.37
2023-05-24T06:27:53.068Z,58.93
2023-05-24T06:30:21.156Z,57.39
2023-05-24T06:32:48.156Z,56.71
2023-05-24T06:35:15.073Z,58.10
2023-05-24T06:37:44.803Z,57.27
2023-05-24T06:40:15.241Z,55.19
2023-05-24T06:42:42.032Z,57.10
2023-05-24T06:45:09.565Z,51.85
2023-05-24T06:47:37.106Z,50.90
2023-05-24T06:50:04.773Z,51.91
2023-05-24T06:52:31.517Z,51.47
2023-05-24T06:54:59.092Z,50.91
2023-05-24T06:57:27.070Z,52.13
2023-05-24T06:59:53.878Z,52.06
2023-05-24T07:02:27.309Z,50.89
2023-05-24T07:04:58.330Z,47.49
2023-05-24T07:07:25.791Z,46.26
2023-05-24T07:09:52.616Z,44.20
2023-05-24T07:12:19.711Z,45.16
2023-05-24T07:14:49.297Z,46.03
2023-05-24T07:17:16.452Z,45.71
2023-05-24T07:19:46.583Z,44.63
2023-05-24T07:22:13.704Z,44.57
2023-05-24T07:24:40.550Z,43.46
2023-05-24T07:27:07.602Z,43.68
2023-05-24T07:29:34.394Z,45.07
2023-05-24T07:32:01.260Z,42.11
2023-05-24T07:34:30.355Z,41.37
2023-05-24T07:37:01.014Z,41.96
2023-05-24T07:39:28.111Z,40.11
2023-05-24T07:41:55.135Z,40.71
2023-05-24T07:44:22.453Z,41.88
2023-05-24T07:46:49.201Z,41.52
2023-05-24T07:49:16.348Z,41.89
2023-05-24T07:51:43.303Z,42.13
2023-05-24T07:54:10.027Z,41.37
2023-05-24T07:56:38.038Z,40.21
2023-05-24T07:59:05.002Z,40.78
2023-05-24T08:01:32.743Z,39.20
2023-05-24T08:04:08.954Z,40.01
2023-05-24T08:06:36.470Z,39.62
2023-05-24T08:09:04.825Z,39.03
2023-05-24T08:11:31.601Z,39.33
2023-05-24T08:13:58.706Z,38.01
2023-05-24T08:16:29.195Z,38.27
2023-05-24T08:18:56.604Z,38.24
2023-05-24T08:21:23.713Z,38.39
2023-05-24T08:23:53.313Z,37.60
2023-05-24T08:26:29.934Z,40.07
2023-05-24T08:28:56.970Z,39.47
2023-05-24T08:31:24.001Z,39.28
2023-05-24T08:33:51.723Z,39.01
2023-05-24T08:36:27.571Z,38.89
2023-05-24T08:38:54.321Z,37.95
2023-05-24T08:41:21.591Z,39.04
2023-05-24T08:43:48.540Z,39.00
2023-05-24T08:46:17.446Z,38.86
2023-05-24T08:48:48.779Z,39.44
2023-05-24T08:51:16.999Z,39.20
2023-05-24T08:53:49.257Z,38.11
2023-05-24T08:56:19.515Z,37.34
2023-05-24T08:58:51.028Z,36.15
2023-05-24T09:01:18.919Z,35.09
2023-05-24T09:03:47.608Z,35.29
2023-05-24T09:06:20.534Z,34.66
2023-05-24T09:08:53.397Z,34.52
2023-05-24T09:11:23.853Z,35.34
2023-05-24T09:13:56.817Z,34.67
2023-05-24T09:16:25.465Z,33.36
2023-05-24T09:18:53.019Z,34.57
2023-05-24T09:21:20.827Z,32.56
2023-05-24T09:23:50.366Z,33.33
2023-05-24T09:26:18.251Z,35.93
2023-05-24T09:28:47.196Z,33.40
2023-05-24T09:31:14.611Z,32.39
2023-05-24T09:33:42.315Z,33.30
2023-05-24T09:36:23.073Z,33.98
2023-05-24T09:39:13.777Z,34.56
2023-05-24T09:41:44.069Z,34.44
2023-05-24T09:47:39.332Z,34.92
2023-05-24T09:52:59.659Z,38.56
2023-05-24T09:55:31.883Z,39.12
2023-05-24T09:58:18.329Z,40.98
2023-05-24T10:00:46.057Z,41.78
2023-05-24T10:03:15.754Z,42.01
2023-05-24T10:05:52.829Z,41.23
2023-05-24T10:08:23.183Z,42.53
2023-05-24T10:10:51.297Z,43.63
2023-05-24T10:13:19.628Z,42.30
2023-05-24T10:15:47.247Z,44.05
2023-05-24T10:18:14.852Z,42.96
2023-05-24T10:20:48.716Z,42.47
2023-05-24T10:23:24.804Z,40.70
2023-05-24T10:26:18.629Z,39.71
2023-05-24T10:28:50.148Z,37.09
2023-05-24T10:31:43.497Z,40.95
2023-05-24T10:34:12.590Z,39.74
2023-05-24T10:36:43.235Z,40.67
2023-05-24T10:39:46.328Z,38.53
2023-05-24T10:42:18.694Z,40.51
2023-05-24T10:44:46.257Z,39.09
2023-05-24T10:47:19.872Z,38.93
2023-05-24T10:49:58.062Z,37.68
2023-05-24T10:52:40.306Z,37.62
2023-05-24T10:55:12.055Z,37.91
2023-05-24T10:57:42.396Z,38.16
2023-05-24T11:00:47.904Z,40.03
2023-05-24T11:03:10.090Z,40.79
2023-05-24T11:05:51.962Z,40.52
2023-05-24T11:08:33.324Z,38.25
2023-05-24T11:11:22.506Z,40.86
2023-05-24T11:14:00.206Z,39.83
2023-05-24T11:16:40.609Z,41.54
2023-05-24T11:19:25.289Z,43.00
2023-05-24T11:21:54.015Z,42.51
2023-05-24T11:24:22.381Z,39.91
2023-05-24T11:26:51.272Z,39.38
2023-05-24T11:29:21.326Z,39.02
2023-05-24T11:31:49.812Z,39.41
2023-05-24T11:34:18.015Z,40.39
2023-05-24T11:36:46.447Z,40.65
2023-05-24T11:39:18.009Z,38.04
2023-05-24T11:41:45.062Z,38.94
2023-05-24T11:44:18.147Z,39.28
2023-05-24T11:46:45.805Z,40.33
2023-05-24T11:49:15.483Z,39.09
2023-05-24T11:51:47.253Z,39.67
2023-05-24T11:54:15.380Z,39.83
2023-05-24T11:56:43.381Z,38.65
2023-05-24T11:59:42.631Z,35.82
2023-05-24T12:02:13.588Z,37.49
2023-05-24T12:04:41.725Z,38.88
2023-05-24T12:07:13.658Z,38.92
2023-05-24T12:09:50.617Z,38.98
2023-05-24T12:12:33.922Z,39.28
2023-05-24T12:15:11.113Z,38.83
2023-05-24T12:17:39.489Z,40.45
2023-05-24T12:20:11.020Z,38.38
2023-05-24T12:22:54.445Z,38.63
2023-05-24T12:25:24.258Z,39.81
2023-05-24T12:27:57.218Z,38.59
2023-05-24T12:30:29.637Z,37.86
2023-05-24T12:32:58.811Z,41.08
2023-05-24T12:35:26.752Z,37.58
2023-05-24T12:38:02.894Z,37.03
2023-05-24T12:40:34.778Z,39.12
2023-05-24T12:43:04.570Z,39.41
2023-05-24T12:45:32.358Z,37.45
2023-05-24T12:48:03.489Z,39.13
2023-05-24T12:50:31.038Z,36.33
2023-05-24T12:53:33.125Z,36.52
2023-05-24T12:56:01.036Z,37.52
2023-05-24T12:58:27.813Z,37.10
2023-05-24T13:01:04.305Z,39.89
2023-05-24T13:03:31.885Z,38.07
2023-05-24T13:06:01.003Z,38.15
2023-05-24T13:08:30.280Z,36.97
2023-05-24T13:11:04.185Z,36.07
2023-05-24T13:13:41.897Z,37.04
2023-05-24T13:16:11.533Z,37.14
2023-05-24T13:18:48.786Z,36.65
2023-05-24T13:21:17.118Z,38.40
2023-05-24T13:23:52.848Z,37.33
2023-05-24T13:26:26.326Z,37.64
2023-05-24T13:31:33.805Z,37.56
2023-05-24T13:34:20.706Z,36.21
2023-05-24T13:36:49.677Z,37.03
2023-05-24T13:39:21.450Z,36.32
2023-05-24T13:41:50.459Z,36.79
2023-05-24T13:44:21.069Z,37.54
2023-05-24T13:46:48.519Z,36.91
2023-05-24T13:49:16.581Z,35.05
2023-05-24T13:51:44.671Z,35.90
2023-05-24T13:54:18.542Z,36.92
2023-05-24T13:56:49.624Z,39.10
2023-05-24T14:02:28.687Z,37.18
2023-05-24T14:05:05.215Z,34.47
2023-05-24T14:07:53.664Z,36.21
2023-05-24T14:10:31.076Z,36.20
2023-05-24T14:13:16.251Z,36.09
2023-05-24T14:15:55.459Z,38.71
2023-05-24T14:18:24.839Z,36.26
2023-05-24T14:20:55.226Z,36.71
2023-05-24T14:23:26.451Z,36.51
2023-05-24T14:26:06.831Z,37.87
2023-05-24T14:28:34.585Z,38.77
2023-05-24T14:31:07.583Z,36.55
2023-05-24T14:33:36.786Z,39.33
2023-05-24T14:36:04.376Z,35.64
2023-05-24T14:38:42.653Z,35.87
2023-05-24T14:41:10.787Z,38.35
2023-05-24T14:43:41.444Z,37.53
2023-05-24T14:46:12.566Z,38.09
2023-05-24T14:48:44.248Z,34.57
2023-05-24T14:51:15.122Z,36.43
2023-05-24T14:53:46.354Z,36.43
2023-05-24T14:56:16.672Z,35.88
2023-05-24T14:58:45.036Z,35.66
2023-05-24T15:01:13.576Z,38.79
2023-05-24T15:03:41.622Z,38.59
2023-05-24T15:06:13.952Z,37.54
2023-05-24T15:08:44.723Z,38.77
2023-05-24T15:11:18.519Z,40.11
2023-05-24T15:13:45.541Z,40.12
2023-05-24T15:16:13.071Z,38.95
2023-05-24T15:18:40.111Z,40.93
2023-05-24T15:21:07.036Z,41.08
2023-05-24T15:23:34.831Z,43.29
2023-05-24T15:26:02.143Z,42.20
2023-05-24T15:28:29.148Z,43.22
2023-05-24T15:30:58.981Z,44.94
2023-05-24T15:33:26.762Z,42.93
2023-05-24T15:35:58.454Z,43.61
2023-05-24T15:38:25.309Z,46.12
2023-05-24T15:40:56.540Z,44.11
2023-05-24T15:43:25.813Z,44.26
2023-05-24T15:45:53.696Z,46.10
2023-05-24T15:48:20.969Z,43.61
2023-05-24T15:51:25.638Z,44.46
2023-05-24T15:53:35.642Z,46.35
2023-05-24T15:56:04.755Z,48.86
2023-05-24T15:58:34.904Z,46.71
2023-05-24T16:01:02.298Z,48.79
2023-05-24T16:03:32.328Z,50.43
2023-05-24T16:05:59.578Z,50.41
2023-05-24T16:08:31.529Z,52.59
2023-05-24T16:10:58.955Z,53.33
2023-05-24T16:13:27.821Z,54.59
2023-05-24T16:15:58.876Z,55.54
2023-05-24T16:18:29.114Z,57.20
2023-05-24T16:20:58.039Z,59.22
2023-05-24T16:23:30.217Z,61.43
2023-05-24T16:26:06.081Z,61.68
2023-05-24T16:28:33.090Z,62.46
2023-05-24T16:31:02.564Z,64.16
2023-05-24T16:33:29.625Z,64.39
2023-05-24T16:35:57.035Z,65.37
2023-05-24T16:38:27.864Z,65.75
2023-05-24T16:40:54.975Z,66.90
2023-05-24T16:43:30.839Z,68.27
2023-05-24T16:45:58.032Z,68.43
2023-05-24T16:48:32.019Z,70.33
2023-05-24T16:51:00.493Z,71.78
2023-05-24T16:53:27.875Z,72.90
2023-05-24T16:55:56.522Z,73.19
2023-05-24T16:58:25.176Z,73.57
2023-05-24T17:00:56.108Z,74.18
2023-05-24T17:03:28.951Z,74.91
2023-05-24T17:06:02.028Z,75.66
2023-05-24T17:08:31.573Z,76.48
2023-05-24T17:10:59.164Z,77.79
2023-05-24T17:13:28.786Z,78.34
2023-05-24T17:15:57.549Z,79.72
2023-05-24T17:18:29.362Z,80.36
2023-05-24T17:21:01.473Z,81.03
2023-05-24T17:23:33.574Z,82.23
2023-05-24T17:26:03.191Z,83.67
2023-05-24T17:28:34.339Z,85.09
2023-05-24T17:31:05.056Z,85.92
2023-05-24T17:33:32.474Z,86.12
2023-05-24T17:36:04.930Z,86.69
2023-05-24T17:38:37.585Z,87.71
2023-05-24T17:41:07.869Z,87.47
2023-05-24T17:43:35.687Z,89.23
2023-05-24T17:46:04.174Z,90.77
2023-05-24T17:48:32.729Z,92.14
2023-05-24T17:51:01.335Z,92.03
2023-05-24T17:53:34.666Z,94.00
2023-05-24T17:56:03.527Z,94.39
2023-05-24T17:58:33.220Z,94.42
2023-05-24T18:01:00.915Z,95.17
2023-05-24T18:03:27.664Z,95.70
2023-05-24T18:05:54.554Z,95.75
2023-05-24T18:08:22.352Z,98.05
2023-05-24T18:10:49.152Z,98.01
2023-05-24T18:13:16.862Z,97.35
2023-05-24T18:15:47.009Z,97.14
2023-05-24T18:18:19.501Z,99.77
2023-05-24T18:20:47.287Z,99.86
2023-05-24T18:23:14.307Z,100.00
2023-05-24T18:25:44.335Z,100.00
2023-05-24T18:28:17.318Z,100.00
2023-05-24T18:30:45.195Z,100.00
2023-05-24T18:33:13.074Z,100.00
2023-05-24T18:35:40.422Z,100.00
2023-05-24T18:38:11.697Z,100.00
2023-05-24T18:40:39.619Z,100.00
2023-05-24T18:43:07.394Z,100.00
2023-05-24T18:46:02.993Z,100.00
2023-05-24T18:48:31.755Z,100.00
2023-05-24T18:50:59.198Z,100.00
2023-05-24T18:53:35.538Z,100.00
2023-05-24T18:56:08.961Z,100.00
2023-05-24T18:58:37.796Z,100.00
2023-05-24T19:01:09.760Z,100.00
2023-05-24T19:03:39.917Z,100.00
2023-05-24T19:06:08.102Z,100.00
2023-05-24T19:08:44.113Z,100.00
2023-05-24T19:11:12.049Z,100.00
2023-05-24T19:13:40.265Z,100.00
2023-05-24T19:16:17.951Z,100.00
2023-05-24T19:18:46.262Z,100.00
2023-05-24T19:21:13.829Z,100.00
2023-05-24T19:23:40.856Z,100.00
2023-05-24T19:26:11.951Z,100.00
2023-05-24T19:28:42.275Z,100.00
2023-05-24T19:31:10.029Z,100.00
2023-05-24T19:33:48.457Z,100.00
2023-05-24T19:36:24.261Z,100.00
2023-05-24T19:38:51.154Z,100.00
2023-05-24T19:41:18.757Z,100.00
2023-05-24T19:43:49.216Z,100.00
2023-05-24T19:46:16.697Z,100.00
2023-05-24T19:48:44.099Z,100.00
2023-05-24T19:51:13.619Z,100.00
2023-05-24T19:53:40.476Z,100.00
2023-05-24T19:56:07.601Z,100.00
2023-05-24T19:58:35.310Z,100.00
2023-05-24T20:01:02.315Z,100.00
2023-05-24T20:03:29.802Z,100.00
2023-05-24T20:05:58.533Z,100.00
2023-05-24T20:08:39.750Z,100.00
2023-05-24T20:11:07.792Z,100.00
2023-05-24T20:13:36.044Z,100.00
2023-05-24T20:16:14.971Z,100.00
2023-05-24T20:18:50.390Z,100.00
2023-05-24T20:21:20.299Z,100.00
2023-05-24T20:23:57.775Z,100.00
2023-05-24T20:26:27.343Z,100.00
2023-05-24T20:29:01.300Z,100.00
2023-05-24T20:31:29.964Z,100.00
2023-05-24T20:33:57.385Z,100.00
2023-05-24T20:36:25.232Z,100.00
2023-05-24T20:38:55.558Z,100.00
2023-05-24T20:41:23.552Z,100.00
2023-05-24T20:44:02.047Z,100.00
2023-05-24T20:46:29.715Z,100.00
2023-05-24T20:48:57.701Z,100.00
2023-05-24T20:51:25.745Z,100.00
2023-05-24T20:53:54.031Z,100.00
2023-05-24T20:56:23.386Z,100.00
2023-05-24T20:58:53.402Z,100.00
2023-05-24T21:01:21.309Z,100.00
2023-05-24T21:03:53.547Z,100.00
2023-05-24T21:06:21.147Z,100.00
2023-05-24T21:08:51.697Z,100.00
2023-05-24T21:11:19.868Z,100.00
2023-05-24T21:13:47.334Z,100.00
2023-05-24T21:16:14.778Z,100.00
2023-05-24T21:18:42.482Z,100.00
2023-05-24T21:21:13.291Z,100.00
2023-05-24T21:23:40.583Z,100.00
2023-05-24T21:26:11.272Z,100.00
2023-05-24T21:28:38.790Z,100.00
2023-05-24T21:31:07.380Z,100.00
2023-05-24T21:33:38.139Z,100.00
2023-05-24T21:36:05.650Z,100.00
2023-05-24T21:38:33.044Z,100.00
2023-05-24T21:41:00.656Z,100.00
2023-05-24T21:43:31.343Z,100.00
2023-05-24T21:45:58.545Z,100.00
2023-05-24T21:48:26.476Z,100.00
2023-05-24T21:50:53.611Z,100.00
2023-05-24T21:53:23.623Z,100.00
2023-05-24T21:55:51.200Z,100.00
2023-05-24T21:58:18.453Z,100.00
2023-05-24T22:00:45.742Z,100.00
2023-05-24T22:03:13.113Z,100.00
2023-05-24T22:05:42.881Z,100.00
2023-05-24T22:08:13.870Z,100.00
2023-05-24T22:10:41.285Z,100.00
2023-05-24T22:13:09.129Z,100.00
2023-05-24T22:15:36.750Z,100.00
2023-05-24T22:18:04.073Z,100.00
2023-05-24T22:20:32.560Z,100.00
2023-05-24T22:23:00.366Z,100.00
2023-05-24T22:25:27.832Z,100.00
2023-05-24T22:27:58.696Z,100.00
2023-05-24T22:30:26.760Z,100.00
2023-05-24T22:32:54.037Z,100.00
2023-05-24T22:35:24.278Z,100.00
2023-05-24T22:37:51.848Z,100.00
2023-05-24T22:40:19.310Z,100.00
2023-05-24T22:42:46.564Z,100.00
2023-05-24T22:45:14.540Z,100.00
2023-05-24T22:47:41.980Z,100.00
2023-05-24T22:50:10.322Z,100.00
2023-05-24T22:52:42.971Z,100.00
2023-05-24T22:55:13.940Z,100.00
2023-05-24T22:57:42.083Z,100.00
2023-05-24T23:00:10.057Z,100.00
2023-05-24T23:02:37.482Z,100.00
2023-05-24T23:05:05.798Z,100.00
2023-05-24T23:07:37.881Z,100.00
2023-05-24T23:10:05.920Z,100.00
2023-05-24T23:12:33.960Z,100.00
2023-05-24T23:15:06.006Z,100.00
2023-05-24T23:17:33.142Z,100.00
2023-05-24T23:20:00.876Z,100.00
2023-05-24T23:22:31.913Z,100.00
2023-05-24T23:25:00.145Z,100.00
2023-05-24T23:27:28.213Z,100.00
2023-05-24T23:29:55.887Z,100.00
2023-05-24T23:32:25.793Z,100.00
2023-05-24T23:34:53.657Z,100.00
2023-05-24T23:37:21.483Z,100.00
2023-05-24T23:39:55.125Z,100.00
2023-05-24T23:42:27.150Z,100.00
2023-05-24T23:45:17.552Z,100.00
2023-05-24T23:47:45.157Z,100.00
2023-05-24T23:50:17.783Z,100.00
2023-05-24T23:52:47.216Z,100.00
2023-05-24T23:55:23.194Z,100.00
2023-05-24T23:57:54.324Z,100.00
